Time;durP1;ratioP1;P1;durP2;ratioP2;P2;SDS_P1;SDS_P2;PMS_P1;PMS_P2;Temp;Humidity;BMP_temperature;BMP_pressure;BME280_temperature;BME280_humidity;BME280_pressure;Samples;Min_cycle;Max_cycle;Signal;HPM_P1;HPM_P2
2021/07/15 00:02:14;;;;;;;16.08;2.13;;;;;;;15.12;100.00;100219.38;5142531;28;20652;-78
2021/07/15 00:04:45;;;;;;;34.45;2.83;;;;;;;14.85;100.00;100230.69;5142177;28;20085;-78
2021/07/15 00:07:16;;;;;;;29.23;2.40;;;;;;;14.69;100.00;100239.56;5141896;28;20360;-78
2021/07/15 00:09:46;;;;;;;29.75;2.55;;;;;;;14.78;100.00;100242.50;5145421;28;20057;-78
2021/07/15 00:12:17;;;;;;;32.90;2.35;;;;;;;14.74;100.00;100248.88;5149107;28;20067;-78
2021/07/15 00:14:48;;;;;;;11.73;1.73;;;;;;;14.98;100.00;100248.31;5144560;28;20513;-78
2021/07/15 00:17:18;;;;;;;19.52;2.05;;;;;;;15.18;100.00;100250.59;5138767;28;20026;-78
2021/07/15 00:19:49;;;;;;;23.27;2.58;;;;;;;14.97;100.00;100267.66;5141348;28;20528;-78
2021/07/15 00:22:19;;;;;;;27.30;2.90;;;;;;;14.74;100.00;100269.09;5141356;28;20050;-78
2021/07/15 00:24:49;;;;;;;33.35;2.75;;;;;;;14.90;100.00;100268.97;5140909;28;20492;-78
2021/07/15 00:27:19;;;;;;;31.00;2.53;;;;;;;15.11;100.00;100265.06;5142626;28;20094;-78
2021/07/15 00:29:50;;;;;;;19.42;2.38;;;;;;;15.20;100.00;100263.69;5141760;28;20523;-78
2021/07/15 00:32:20;;;;;;;15.53;2.10;;;;;;;15.28;100.00;100251.75;5141924;28;20488;-78
2021/07/15 00:34:50;;;;;;;16.05;2.03;;;;;;;15.38;100.00;100247.66;5142026;28;20277;-78
2021/07/15 00:37:21;;;;;;;9.30;2.30;;;;;;;15.50;100.00;100238.19;5141952;28;20026;-78
2021/07/15 00:39:51;;;;;;;14.48;2.42;;;;;;;15.51;100.00;100231.97;5142354;28;20034;-78
2021/07/15 00:42:21;;;;;;;10.88;2.33;;;;;;;15.67;100.00;100214.28;5142129;28;20432;-78
2021/07/15 00:44:52;;;;;;;8.07;1.90;;;;;;;15.88;100.00;100213.78;5142162;28;20025;-78
2021/07/15 00:47:22;;;;;;;19.10;2.08;;;;;;;15.90;100.00;100218.97;5136595;28;20039;-78
2021/07/15 00:49:52;;;;;;;9.25;2.00;;;;;;;15.96;100.00;100219.44;5141584;28;20030;-78
2021/07/15 00:52:23;;;;;;;9.45;1.90;;;;;;;16.02;100.00;100221.66;5142098;28;20026;-78
2021/07/15 00:54:54;;;;;;;11.75;2.10;;;;;;;15.92;100.00;100222.34;5131048;28;20035;-78
2021/07/15 00:57:25;;;;;;;17.48;2.45;;;;;;;15.69;100.00;100220.31;5145886;28;20057;-78
2021/07/15 00:59:55;;;;;;;14.10;2.13;;;;;;;15.83;100.00;100226.41;5146386;28;20110;-80
2021/07/15 01:02:26;;;;;;;23.17;2.28;;;;;;;15.79;100.00;100222.28;5142710;28;20085;-79
2021/07/15 01:04:56;;;;;;;23.10;2.97;;;;;;;15.51;100.00;100216.16;5143489;28;20077;-78
2021/07/15 01:07:26;;;;;;;24.52;2.80;;;;;;;15.44;100.00;100217.47;5143705;28;20134;-78
2021/07/15 01:09:56;;;;;;;22.77;2.67;;;;;;;15.38;100.00;100210.78;5143029;28;20045;-78
2021/07/15 01:12:45;;;;;;;17.88;2.85;;;;;;;15.57;100.00;100221.88;5143018;28;20642;-78
2021/07/15 01:15:22;;;;;;;21.60;2.35;;;;;;;15.68;100.00;100221.25;5140349;28;20030;-78
2021/07/15 01:18:20;;;;;;;29.45;2.83;;;;;;;15.31;100.00;100233.16;5143009;28;20065;-82
2021/07/15 01:21:10;;;;;;;34.95;2.63;;;;;;;15.24;100.00;100238.88;5138840;28;20037;-81
2021/07/15 01:24:05;;;;;;;23.80;2.58;;;;;;;15.31;100.00;100245.47;5142285;28;20034;-81
2021/07/15 01:26:55;;;;;;;16.83;2.67;;;;;;;15.52;100.00;100233.66;5143284;28;20054;-80
2021/07/15 01:30:02;;;;;;;19.52;2.10;;;;;;;15.58;100.00;100247.31;5140833;28;20465;-80
2021/07/15 01:32:46;;;;;;;33.72;2.65;;;;;;;15.05;100.00;100241.72;5142306;28;20036;-78
2021/07/15 01:35:21;;;;;;;36.45;2.58;;;;;;;15.13;100.00;100238.66;5142798;28;20055;-80
2021/07/15 01:37:55;;;;;;;31.53;2.73;;;;;;;15.15;100.00;100239.44;5142540;28;20034;-79
2021/07/15 01:40:33;;;;;;;36.15;2.42;;;;;;;15.01;100.00;100234.97;5142702;28;20030;-78
2021/07/15 01:43:08;;;;;;;28.55;2.78;;;;;;;14.94;100.00;100233.63;5142116;28;20022;-78
2021/07/15 01:45:39;;;;;;;26.40;2.83;;;;;;;15.03;100.00;100234.88;5139002;28;20421;-80
2021/07/15 01:48:10;;;;;;;27.40;2.53;;;;;;;15.24;100.00;100238.88;5142338;28;20177;-79
2021/07/15 01:50:41;;;;;;;29.88;2.80;;;;;;;15.13;100.00;100247.41;5142595;28;20182;-80
2021/07/15 01:53:12;;;;;;;30.08;2.75;;;;;;;15.04;100.00;100247.09;5142098;28;20023;-79
2021/07/15 01:55:43;;;;;;;24.10;2.50;;;;;;;14.82;100.00;100252.75;5142071;28;20038;-78
2021/07/15 01:58:14;;;;;;;30.33;2.80;;;;;;;14.65;100.00;100259.09;5142730;28;20102;-79
2021/07/15 02:00:45;;;;;;;48.38;3.65;;;;;;;14.80;100.00;100266.94;5141773;28;20037;-79
2021/07/15 02:03:17;;;;;;;36.00;2.95;;;;;;;14.72;100.00;100270.94;5141828;28;20496;-81
2021/07/15 02:05:48;;;;;;;27.92;2.58;;;;;;;14.68;100.00;100274.69;5142577;28;20038;-80
2021/07/15 02:08:20;;;;;;;26.92;2.88;;;;;;;14.61;100.00;100278.59;5142009;28;20469;-78
2021/07/15 02:10:53;;;;;;;20.75;2.40;;;;;;;14.68;100.00;100279.94;5141950;28;20041;-80
2021/07/15 02:13:24;;;;;;;17.58;2.50;;;;;;;14.68;100.00;100295.72;5141509;28;20379;-78
2021/07/15 02:15:57;;;;;;;24.83;2.78;;;;;;;14.60;100.00;100280.38;5181900;23;20049;-79
2021/07/15 02:18:28;;;;;;;27.20;2.53;;;;;;;14.48;100.00;100282.84;5171436;28;20041;-77
2021/07/15 02:21:00;;;;;;;26.92;2.65;;;;;;;14.42;100.00;100288.47;5170761;28;20031;-78
2021/07/15 02:23:31;;;;;;;20.63;2.50;;;;;;;14.48;100.00;100285.47;5166136;28;20062;-78
2021/07/15 02:26:01;;;;;;;25.60;2.80;;;;;;;14.50;100.00;100287.09;5150984;28;20019;-79
2021/07/15 02:28:33;;;;;;;16.42;3.03;;;;;;;14.71;100.00;100279.75;5149898;28;20034;-79
2021/07/15 02:31:09;;;;;;;21.65;2.60;;;;;;;14.76;100.00;100288.25;5149633;28;20050;-76
2021/07/15 02:33:42;;;;;;;;;;;;;;;14.75;100.00;100282.13;5147252;28;20082;-79
2021/07/15 02:36:14;;;;;;;12.73;2.65;;;;;;;14.75;100.00;100282.13;5148407;28;20368;-77
2021/07/15 02:38:48;;;;;;;27.92;2.90;;;;;;;14.84;100.00;100274.56;5148207;28;20174;-77
2021/07/15 02:41:19;;;;;;;9.93;2.15;;;;;;;14.89;100.00;100264.66;5148413;28;20026;-77
2021/07/15 02:43:49;;;;;;;9.68;2.08;;;;;;;14.94;100.00;100264.34;5149577;28;20038;-79
2021/07/15 02:46:19;;;;;;;14.55;2.63;;;;;;;14.93;100.00;100263.53;5148199;28;20026;-78
2021/07/15 02:48:50;;;;;;;14.88;2.40;;;;;;;14.87;100.00;100282.28;5148010;28;20027;-79
2021/07/15 02:51:20;;;;;;;37.35;3.70;;;;;;;14.87;100.00;100281.44;5149017;28;20033;-80
2021/07/15 02:53:51;;;;;;;34.97;2.33;;;;;;;14.90;100.00;100279.50;5148128;28;20027;-79
2021/07/15 02:56:43;;;;;;;20.30;2.70;;;;;;;14.52;100.00;100279.13;5149293;28;20023;-80
2021/07/15 02:59:23;;;;;;;32.55;2.50;;;;;;;14.43;100.00;100272.59;5148459;28;20050;-77
2021/07/15 03:02:04;;;;;;;38.72;3.00;;;;;;;14.35;100.00;100277.44;5147700;28;20038;-77
2021/07/15 03:04:42;;;;;;;34.38;2.90;;;;;;;14.28;100.00;100272.59;5149813;28;20034;-79
2021/07/15 03:07:15;;;;;;;30.25;2.67;;;;;;;14.32;100.00;100274.13;5144416;28;20458;-80
2021/07/15 03:09:50;;;;;;;33.78;3.38;;;;;;;14.20;100.00;100285.31;5148506;28;20030;-76
2021/07/15 03:12:24;;;;;;;29.83;2.85;;;;;;;14.16;100.00;100281.16;5147883;28;20018;-80
2021/07/15 03:14:56;;;;;;;23.27;3.00;;;;;;;14.12;100.00;100264.66;5149199;28;20030;-78
2021/07/15 03:17:34;;;;;;;26.88;3.42;;;;;;;14.25;100.00;100264.91;5150470;28;20038;-80
2021/07/15 03:20:08;;;;;;;26.40;3.10;;;;;;;14.39;100.00;100246.56;5148626;28;20416;-80
2021/07/15 03:22:40;;;;;;;25.92;3.13;;;;;;;14.45;100.00;100243.59;5144455;28;20405;-79
2021/07/15 03:25:14;;;;;;;28.77;3.30;;;;;;;14.53;100.00;100249.25;5146332;28;20035;-80
2021/07/15 03:27:48;;;;;;;24.85;3.42;;;;;;;14.51;100.00;100256.38;5146826;28;20378;-80
2021/07/15 03:30:19;;;;;;;30.83;3.70;;;;;;;14.52;100.00;100258.06;5153321;28;20078;-79
2021/07/15 03:32:52;;;;;;;24.02;3.40;;;;;;;14.49;100.00;100263.50;5156187;28;20022;-79
2021/07/15 03:35:23;;;;;;;28.90;3.45;;;;;;;14.42;100.00;100270.06;5153115;28;20050;-77
2021/07/15 03:37:56;;;;;;;26.65;3.67;;;;;;;14.51;100.00;100278.28;5151426;28;20057;-80
2021/07/15 03:40:28;;;;;;;26.45;3.25;;;;;;;14.60;100.00;100279.53;5148590;28;20081;-78
2021/07/15 03:42:59;;;;;;;33.33;3.20;;;;;;;14.61;100.00;100281.25;5157544;28;20358;-80
2021/07/15 03:45:30;;;;;;;28.70;3.35;;;;;;;14.48;100.00;100288.13;5151991;28;20026;-80
2021/07/15 03:48:03;;;;;;;26.38;3.20;;;;;;;14.53;100.00;100291.31;5155257;28;20029;-77
2021/07/15 03:50:33;;;;;;;34.15;3.25;;;;;;;14.73;100.00;100285.81;5151660;28;20077;-78
2021/07/15 03:53:08;;;;;;;23.75;2.72;;;;;;;14.80;100.00;100289.78;5152911;28;20019;-79
2021/07/15 03:55:41;;;;;;;24.40;2.63;;;;;;;14.75;100.00;100287.41;5151444;28;20034;-79
2021/07/15 03:58:13;;;;;;;25.67;2.90;;;;;;;14.93;100.00;100287.22;5152366;28;20034;-78
2021/07/15 04:00:45;;;;;;;33.85;3.30;;;;;;;14.94;100.00;100293.31;5153481;28;20026;-79
2021/07/15 04:03:20;;;;;;;28.08;2.90;;;;;;;14.73;100.00;100293.72;5151616;28;20027;-79
2021/07/15 04:05:53;;;;;;;27.20;3.30;;;;;;;14.72;100.00;100292.84;5148026;28;20030;-77
2021/07/15 04:08:26;;;;;;;38.60;3.20;;;;;;;14.64;100.00;100288.94;5152351;28;20041;-79
2021/07/15 04:11:02;;;;;;;33.63;3.40;;;;;;;14.60;100.00;100287.44;5154545;28;20366;-78
2021/07/15 04:13:33;;;;;;;;;;;;;;;14.79;100.00;100285.44;5152339;28;20086;-80
2021/07/15 04:16:22;;;;;;;50.38;4.50;;;;;;;14.75;100.00;100287.41;5155269;28;19924;-77
2021/07/15 04:18:57;;;;;;;26.30;2.85;;;;;;;14.88;100.00;100288.41;5150764;28;20052;-79
2021/07/15 04:21:27;;;;;;;48.55;4.00;;;;;;;14.84;100.00;100292.97;5153107;28;20042;-76
2021/07/15 04:23:59;;;;;;;37.50;3.15;;;;;;;14.79;100.00;100288.91;5154162;28;20026;-79
2021/07/15 04:26:31;;;;;;;34.50;3.28;;;;;;;14.82;100.00;100282.63;5153016;28;20099;-77
2021/07/15 04:29:02;;;;;;;35.13;3.30;;;;;;;14.88;100.00;100283.97;5151943;28;20026;-80
2021/07/15 04:31:44;;;;;;;33.83;3.38;;;;;;;15.04;100.00;100283.94;5151900;28;20153;-77
2021/07/15 04:34:15;;;;;;;28.90;3.40;;;;;;;15.32;100.00;100284.91;5151382;28;20130;-78
2021/07/15 04:36:47;;;;;;;32.25;3.13;;;;;;;15.64;100.00;100283.81;5157648;28;20449;-79
2021/07/15 04:39:17;;;;;;;31.05;3.60;;;;;;;15.73;100.00;100275.34;5156463;28;20185;-80
2021/07/15 04:41:48;;;;;;;29.98;2.90;;;;;;;16.13;100.00;100273.72;5155948;28;20027;-78
2021/07/15 04:44:19;;;;;;;24.92;2.88;;;;;;;16.72;100.00;100265.50;5157429;28;20135;-80
2021/07/15 04:46:51;;;;;;;29.25;2.90;;;;;;;17.43;100.00;100262.38;5153261;28;20501;-79
2021/07/15 04:49:21;;;;;;;25.85;2.95;;;;;;;20.04;90.51;100251.56;5156233;28;20384;-78
2021/07/15 04:51:54;;;;;;;25.23;2.58;;;;;;;21.08;84.59;100255.31;5156541;28;20030;-78
2021/07/15 04:54:25;;;;;;;35.38;2.92;;;;;;;21.83;86.94;100254.97;5156499;28;20022;-79
2021/07/15 04:56:56;;;;;;;16.23;1.92;;;;;;;22.06;81.56;100251.16;5155861;28;20109;-80
2021/07/15 04:59:28;;;;;;;40.20;2.75;;;;;;;24.27;72.81;100258.81;5155844;28;20054;-80
2021/07/15 05:01:58;;;;;;;25.15;2.30;;;;;;;25.53;67.25;100251.38;5157718;28;20599;-81
2021/07/15 05:04:28;;;;;;;25.92;2.40;;;;;;;27.14;63.07;100251.91;5149412;28;20030;-78
2021/07/15 05:06:59;;;;;;;22.80;2.03;;;;;;;27.44;63.76;100259.28;5149498;28;20278;-78
2021/07/15 05:09:29;;;;;;;26.35;1.90;;;;;;;25.32;69.91;100273.13;5150374;28;20320;-79
2021/07/15 05:12:02;;;;;;;30.80;2.33;;;;;;;25.92;67.54;100266.88;5156837;28;20081;-80
2021/07/15 05:14:40;;;;;;;29.92;2.38;;;;;;;27.36;63.07;100267.31;5156676;28;20046;-81
2021/07/15 05:17:11;;;;;;;23.10;2.17;;;;;;;27.70;62.98;100281.38;5152529;28;20037;-81
2021/07/15 05:19:41;;;;;;;25.13;2.40;;;;;;;29.30;60.26;100270.75;5154860;28;20493;-79
2021/07/15 05:22:11;;;;;;;16.93;2.10;;;;;;;27.98;63.61;100269.28;5151434;28;20022;-79
2021/07/15 05:24:41;;;;;;;22.75;1.70;;;;;;;28.21;61.08;100272.88;5147755;28;20294;-78
2021/07/15 05:27:12;;;;;;;18.40;2.43;;;;;;;26.55;66.60;100281.59;5154864;28;20400;-80
2021/07/15 05:29:42;;;;;;;19.93;2.20;;;;;;;28.48;62.64;100275.97;5146386;28;20149;-78
2021/07/15 05:32:13;;;;;;;16.67;1.80;;;;;;;29.95;60.33;100269.16;5153339;28;20774;-77
2021/07/15 05:34:43;;;;;;;15.90;2.03;;;;;;;29.46;59.28;100281.41;5151327;28;20042;-80
2021/07/15 05:37:13;;;;;;;15.73;1.77;;;;;;;28.52;62.65;100266.56;5159984;28;20026;-80
2021/07/15 05:39:44;;;;;;;14.15;1.77;;;;;;;27.49;64.32;100270.34;5144413;28;20282;-80
2021/07/15 05:42:14;;;;;;;12.48;1.70;;;;;;;23.81;74.76;100273.97;5148170;28;20101;-79
2021/07/15 05:44:44;;;;;;;15.23;2.20;;;;;;;22.21;80.61;100280.91;5160476;28;20022;-79
2021/07/15 05:47:15;;;;;;;17.10;2.30;;;;;;;25.07;71.65;100278.38;5156213;28;20035;-78
2021/07/15 05:49:45;;;;;;;14.13;1.83;;;;;;;24.20;74.32;100283.59;5145540;28;20791;-79
2021/07/15 05:52:15;;;;;;;13.73;1.63;;;;;;;24.42;75.99;100285.84;5155157;28;20062;-78
2021/07/15 05:54:46;;;;;;;14.60;1.90;;;;;;;27.28;66.01;100281.56;5155727;28;20029;-77
2021/07/15 05:57:16;;;;;;;15.55;1.95;;;;;;;26.57;67.39;100287.66;5156286;28;20036;-78
2021/07/15 05:59:47;;;;;;;13.10;2.13;;;;;;;25.76;69.97;100298.91;5155687;28;20050;-76
2021/07/15 06:02:17;;;;;;;18.48;2.00;;;;;;;25.59;69.44;100296.25;5149421;28;20022;-78
2021/07/15 06:04:47;;;;;;;11.57;1.70;;;;;;;23.35;81.00;100309.47;5153431;28;20598;-79
2021/07/15 06:07:18;;;;;;;18.00;2.13;;;;;;;22.76;81.46;100316.72;5150076;28;20082;-79
2021/07/15 06:09:48;;;;;;;10.18;1.70;;;;;;;22.90;80.16;100308.31;5154163;28;20118;-77
2021/07/15 06:12:18;;;;;;;18.98;2.00;;;;;;;22.24;83.12;100307.28;5154485;28;20097;-79
2021/07/15 06:14:49;;;;;;;13.25;1.67;;;;;;;22.46;83.78;100307.09;5153112;28;20034;-79
2021/07/15 06:17:19;;;;;;;10.83;1.63;;;;;;;23.18;82.78;100302.19;5156952;28;20030;-79
2021/07/15 06:19:51;;;;;;;18.13;1.77;;;;;;;24.11;81.63;100308.50;5150930;28;20265;-76
2021/07/15 06:22:21;;;;;;;8.70;1.50;;;;;;;24.41;80.34;100289.53;5149926;28;20281;-79
2021/07/15 06:24:51;;;;;;;13.07;1.80;;;;;;;24.24;82.03;100296.47;5151105;28;20026;-79
2021/07/15 06:27:22;;;;;;;7.60;1.50;;;;;;;24.17;79.79;100297.22;5152075;28;20483;-78
2021/07/15 06:29:52;;;;;;;7.90;1.40;;;;;;;23.25;82.86;100307.78;5148176;28;20278;-77
2021/07/15 06:32:22;;;;;;;11.10;1.37;;;;;;;22.94;85.48;100309.72;5147660;28;20313;-78
2021/07/15 06:34:53;;;;;;;7.35;1.38;;;;;;;23.64;81.77;100315.63;5147568;28;20328;-78
2021/07/15 06:37:28;;;;;;;3.80;1.20;;;;;;;24.21;78.98;100315.47;5148002;28;20531;-79
2021/07/15 06:39:59;;;;;;;;;;;;;;;24.10;78.54;100322.84;5148242;28;20590;-79
2021/07/15 06:42:30;;;;;;;5.30;1.20;;;;;;;24.27;78.06;100330.94;5146360;28;19917;-76
2021/07/15 06:45:02;;;;;;;2.85;1.10;;;;;;;25.00;76.79;100320.94;5147269;28;20161;-77
2021/07/15 06:47:33;;;;;;;6.00;0.95;;;;;;;25.55;75.00;100317.16;5147997;28;20058;-77
2021/07/15 06:50:07;;;;;;;4.00;1.00;;;;;;;25.09;76.43;100308.50;5145200;28;20475;-79
2021/07/15 06:52:38;;;;;;;7.70;1.30;;;;;;;24.13;79.61;100318.06;5142698;28;20232;-76
2021/07/15 06:55:09;;;;;;;4.65;0.82;;;;;;;26.07;74.52;100294.78;5146183;28;20034;-79
2021/07/15 06:57:39;;;;;;;6.13;1.10;;;;;;;26.27;74.10;100300.72;5147213;28;20030;-78
2021/07/15 07:00:13;;;;;;;4.50;0.90;;;;;;;27.77;68.40;100293.19;5141454;28;20041;-79
2021/07/15 07:02:45;;;;;;;3.70;1.00;;;;;;;28.44;64.06;100303.44;5145404;28;20026;-79
2021/07/15 07:05:16;;;;;;;1.83;0.80;;;;;;;27.48;64.67;100308.94;5147035;28;20023;-78
2021/07/15 07:07:46;;;;;;;3.78;0.80;;;;;;;26.83;69.12;100299.09;5147097;28;20035;-78
2021/07/15 07:10:19;;;;;;;3.97;1.10;;;;;;;26.69;66.99;100299.72;5146381;28;20023;-79
2021/07/15 07:12:49;;;;;;;3.97;0.70;;;;;;;27.90;66.34;100307.75;5145103;28;20061;-76
2021/07/15 07:15:20;;;;;;;4.22;0.90;;;;;;;27.43;66.26;100300.56;5145402;28;20740;-78
2021/07/15 07:17:51;;;;;;;3.03;0.70;;;;;;;25.73;71.03;100303.72;5146782;28;20041;-79
2021/07/15 07:20:21;;;;;;;4.93;1.08;;;;;;;24.78;74.83;100302.69;5144709;28;20034;-78
2021/07/15 07:22:52;;;;;;;2.95;1.00;;;;;;;24.82;75.89;100311.25;5145857;28;20034;-78
2021/07/15 07:25:22;;;;;;;1.50;0.73;;;;;;;25.89;74.00;100311.91;5144643;28;20061;-78
2021/07/15 07:27:52;;;;;;;1.73;0.70;;;;;;;25.01;73.45;100327.97;5144447;28;20038;-78
2021/07/15 07:30:23;;;;;;;1.97;0.70;;;;;;;25.80;71.97;100328.91;5145834;28;20038;-77
2021/07/15 07:32:53;;;;;;;2.03;0.80;;;;;;;26.61;66.95;100329.22;5144052;28;20326;-79
2021/07/15 07:35:24;;;;;;;3.75;0.80;;;;;;;25.90;68.75;100337.69;5146271;28;20026;-78
2021/07/15 07:37:55;;;;;;;2.78;0.70;;;;;;;28.12;66.41;100336.59;5147011;28;20033;-77
2021/07/15 07:40:25;;;;;;;2.50;0.80;;;;;;;29.69;61.39;100336.97;5146128;28;20397;-78
2021/07/15 07:42:55;;;;;;;2.80;0.63;;;;;;;29.77;61.63;100346.84;5146048;28;20031;-79
2021/07/15 07:45:25;;;;;;;3.37;0.80;;;;;;;28.80;62.58;100353.84;5149682;28;20305;-79
2021/07/15 07:47:56;;;;;;;1.73;0.80;;;;;;;26.59;67.13;100352.69;5144475;28;20413;-79
2021/07/15 07:50:26;;;;;;;1.95;0.70;;;;;;;27.56;64.93;100358.13;5146129;28;20034;-79
2021/07/15 07:52:57;;;;;;;2.70;0.60;;;;;;;27.71;67.08;100358.28;5143866;28;21354;-78
2021/07/15 07:55:27;;;;;;;4.32;0.95;;;;;;;26.88;66.94;100353.97;5144379;28;20515;-77
2021/07/15 07:57:58;;;;;;;4.57;0.70;;;;;;;27.19;66.53;100347.03;5147341;28;20030;-77
2021/07/15 08:00:28;;;;;;;4.23;0.80;;;;;;;26.87;66.95;100351.44;5144650;28;20027;-79
2021/07/15 08:02:58;;;;;;;2.40;0.60;;;;;;;27.72;66.49;100350.09;5145335;28;20274;-79
2021/07/15 08:05:29;;;;;;;3.63;0.80;;;;;;;27.95;66.75;100345.69;5140997;28;20521;-79
2021/07/15 08:07:59;;;;;;;2.45;0.80;;;;;;;27.27;67.73;100341.66;5144039;28;20022;-79
2021/07/15 08:10:30;;;;;;;2.97;0.70;;;;;;;28.25;65.04;100346.81;5146451;28;20023;-78
2021/07/15 08:13:00;;;;;;;2.03;0.80;;;;;;;28.90;62.10;100346.44;5144881;28;20736;-79
2021/07/15 08:15:30;;;;;;;1.27;0.67;;;;;;;29.34;58.95;100342.09;5144768;28;20282;-79
2021/07/15 08:18:01;;;;;;;1.38;0.55;;;;;;;28.61;62.25;100342.69;5140997;28;20266;-79
2021/07/15 08:20:32;;;;;;;1.40;0.60;;;;;;;27.46;65.74;100354.75;5141947;28;20391;-79
2021/07/15 08:23:04;;;;;;;2.88;0.50;;;;;;;28.79;61.05;100354.88;5140699;28;20037;-79
2021/07/15 08:25:35;;;;;;;1.00;0.70;;;;;;;29.63;60.26;100353.03;5143188;28;20392;-79
2021/07/15 08:28:05;;;;;;;1.80;0.70;;;;;;;30.11;59.40;100352.59;5141727;28;20109;-79
2021/07/15 08:30:35;;;;;;;0.93;0.68;;;;;;;30.85;58.18;100351.38;5143032;28;20405;-79
2021/07/15 08:33:06;;;;;;;2.90;0.90;;;;;;;28.34;60.23;100367.31;5145011;28;20521;-78
2021/07/15 08:35:36;;;;;;;4.78;1.05;;;;;;;28.45;58.90;100364.28;5142771;28;20045;-78
2021/07/15 08:38:09;;;;;;;4.82;1.25;;;;;;;28.06;62.11;100361.47;5138035;28;20029;-79
2021/07/15 08:40:39;;;;;;;2.50;0.80;;;;;;;27.52;65.46;100370.22;5141234;28;20031;-78
2021/07/15 08:43:10;;;;;;;4.37;1.10;;;;;;;26.96;66.07;100369.25;5141519;28;20117;-79
2021/07/15 08:45:42;;;;;;;4.40;1.25;;;;;;;26.65;66.80;100369.97;5141187;28;20344;-79
2021/07/15 08:48:14;;;;;;;3.45;1.23;;;;;;;27.48;64.53;100368.84;5141814;28;20026;-78
2021/07/15 08:50:44;;;;;;;3.75;1.20;;;;;;;28.72;61.20;100361.13;5141580;28;20039;-78
2021/07/15 08:53:16;;;;;;;1.85;1.10;;;;;;;29.57;60.80;100359.97;5140795;28;20456;-79
2021/07/15 08:58:20;;;;;;;4.55;1.40;;;;;;;30.34;59.90;100358.75;5142943;28;20094;-79
2021/07/15 09:00:51;;;;;;;3.28;1.10;;;;;;;32.83;53.37;100344.59;5142820;28;20102;-79
2021/07/15 09:03:21;;;;;;;2.90;1.35;;;;;;;32.47;53.82;100351.25;5141485;28;20093;-79
2021/07/15 09:05:52;;;;;;;6.28;1.77;;;;;;;31.44;54.09;100360.19;5142348;28;20058;-78
2021/07/15 09:08:22;;;;;;;6.57;1.48;;;;;;;31.05;55.81;100359.72;5141204;28;20665;-79
2021/07/15 09:10:53;;;;;;;2.90;1.45;;;;;;;30.34;56.88;100364.16;5140617;28;20058;-78
2021/07/15 09:13:23;;;;;;;3.43;1.47;;;;;;;27.52;61.55;100364.00;5140324;28;20015;-78
2021/07/15 09:15:53;;;;;;;4.15;1.50;;;;;;;26.61;65.76;100371.28;5141707;28;20041;-79
2021/07/15 09:18:23;;;;;;;3.90;1.70;;;;;;;27.67;64.49;100362.31;5144539;28;20038;-78
2021/07/15 09:20:54;;;;;;;6.40;1.80;;;;;;;28.85;60.73;100359.53;5144206;28;20629;-79
2021/07/15 09:23:33;;;;;;;4.43;1.40;;;;;;;29.24;59.62;100352.28;5144552;28;20027;-78
2021/07/15 09:26:03;;;;;;;5.90;1.60;;;;;;;29.92;58.26;100340.44;5143306;28;20085;-78
2021/07/15 09:28:33;;;;;;;4.03;1.55;;;;;;;29.64;59.20;100339.38;5145205;28;20078;-79
2021/07/15 09:31:14;;;;;;;3.80;1.30;;;;;;;31.90;55.77;100337.94;5144845;28;20023;-79
2021/07/15 09:33:46;;;;;;;4.22;1.25;;;;;;;32.24;55.93;100342.59;5141891;28;20030;-79
2021/07/15 09:36:20;;;;;;;2.95;1.30;;;;;;;32.65;55.15;100344.28;5144749;28;20664;-79
2021/07/15 09:38:50;;;;;;;3.38;1.17;;;;;;;30.86;53.67;100342.25;5146096;28;20086;-79
2021/07/15 09:41:20;;;;;;;2.70;1.02;;;;;;;33.55;52.35;100340.22;5145954;28;20054;-79
2021/07/15 09:43:51;;;;;;;2.10;1.10;;;;;;;31.60;55.21;100343.69;5140621;28;20643;-79
2021/07/15 09:46:23;;;;;;;1.58;0.85;;;;;;;31.10;56.10;100351.88;5145106;28;20023;-79
2021/07/15 09:49:06;;;;;;;3.70;0.90;;;;;;;30.35;57.41;100355.88;5145610;28;20026;-79
2021/07/15 09:51:39;;;;;;;3.47;0.70;;;;;;;31.89;52.98;100352.50;5143441;28;20083;-79
2021/07/15 09:54:09;;;;;;;3.22;1.00;;;;;;;30.05;57.46;100359.56;5144703;28;20031;-79
2021/07/15 09:56:41;;;;;;;2.92;0.80;;;;;;;30.63;56.45;100353.38;5145633;28;20042;-79
2021/07/15 09:59:12;;;;;;;1.15;0.50;;;;;;;32.64;50.93;100345.31;5144237;28;20176;-79
2021/07/15 10:01:50;;;;;;;2.95;0.80;;;;;;;31.18;55.90;100349.13;5144958;28;20154;-79
2021/07/15 10:04:26;;;;;;;2.08;0.50;;;;;;;30.84;56.93;100354.28;5144753;28;20023;-79
2021/07/15 10:06:59;;;;;;;2.47;0.55;;;;;;;32.36;53.95;100355.38;5143380;28;20027;-79
2021/07/15 10:09:31;;;;;;;2.95;0.65;;;;;;;31.07;56.94;100355.81;5145510;28;20034;-79
2021/07/15 10:12:03;;;;;;;3.33;0.70;;;;;;;30.55;56.94;100358.84;5143226;28;20031;-79
2021/07/15 10:14:41;;;;;;;1.13;0.68;;;;;;;30.84;55.43;100367.78;5144941;28;20485;-79
2021/07/15 10:17:11;;;;;;;1.65;0.70;;;;;;;30.93;59.24;100367.50;5142253;28;20037;-79
2021/07/15 10:19:43;;;;;;;1.17;0.60;;;;;;;27.00;63.23;100375.94;5145031;28;20035;-79
2021/07/15 10:22:13;;;;;;;2.28;0.70;;;;;;;27.15;65.20;100383.25;5144473;28;20270;-78
2021/07/15 10:24:43;;;;;;;2.73;0.70;;;;;;;27.54;61.51;100376.25;5143384;28;20537;-79
2021/07/15 10:27:14;;;;;;;2.00;0.70;;;;;;;27.30;62.19;100370.84;5143927;28;20332;-78
2021/07/15 10:29:45;;;;;;;0.90;0.60;;;;;;;27.53;62.50;100368.34;5143354;28;20042;-78
2021/07/15 10:32:16;;;;;;;1.65;0.70;;;;;;;27.51;61.44;100370.38;5143102;28;20129;-78
2021/07/15 10:34:51;;;;;;;2.78;0.80;;;;;;;27.19;62.70;100373.88;5143543;28;20054;-78
2021/07/15 10:37:24;;;;;;;;;;;;;;;26.38;65.85;100375.50;5143818;28;20026;-78
2021/07/15 10:39:54;;;;;;;1.05;0.75;;;;;;;26.84;64.32;100376.75;5143426;28;19914;-79
2021/07/15 10:42:25;;;;;;;1.85;0.80;;;;;;;26.94;63.26;100380.13;5143512;28;20060;-78
2021/07/15 10:44:55;;;;;;;2.42;0.93;;;;;;;26.90;64.69;100392.19;5136764;28;20034;-78
2021/07/15 10:47:26;;;;;;;1.23;0.75;;;;;;;26.22;64.88;100394.16;5142724;28;20030;-78
2021/07/15 10:49:58;;;;;;;3.50;0.77;;;;;;;26.76;65.56;100395.50;5143189;28;20456;-78
2021/07/15 10:52:30;;;;;;;2.90;0.82;;;;;;;26.70;68.51;100397.97;5146303;28;20033;-78
2021/07/15 10:55:03;;;;;;;1.45;0.70;;;;;;;26.85;63.97;100391.84;5145899;28;20549;-79
2021/07/15 10:57:33;;;;;;;5.00;0.98;;;;;;;27.53;66.20;100385.31;5146267;28;20039;-78
2021/07/15 11:00:24;;;;;;;1.80;0.80;;;;;;;27.19;65.43;100391.81;5141714;28;20078;-78
2021/07/15 11:03:13;;;;;;;1.45;0.63;;;;;;;27.09;62.89;100388.41;5140532;28;20053;-78
2021/07/15 11:05:49;;;;;;;1.95;0.90;;;;;;;27.42;61.12;100385.63;5138091;28;20026;-78
2021/07/15 11:08:48;;;;;;;1.17;0.73;;;;;;;26.94;64.21;100385.50;5141740;28;20030;-78
2021/07/15 11:11:35;;;;;;;2.78;0.95;;;;;;;26.58;63.51;100385.88;5137556;28;20030;-78
2021/07/15 11:14:06;;;;;;;2.00;0.60;;;;;;;26.46;62.39;100388.94;5140075;28;20025;-78
2021/07/15 11:16:48;;;;;;;2.30;0.75;;;;;;;26.42;63.68;100379.53;5141328;28;20034;-78
2021/07/15 11:19:56;;;;;;;1.98;0.90;;;;;;;25.91;65.08;100387.59;5144296;28;20048;-78
2021/07/15 11:22:42;;;;;;;1.25;0.60;;;;;;;26.01;66.56;100388.34;5147990;28;20026;-78
2021/07/15 11:25:31;;;;;;;2.10;0.80;;;;;;;26.45;69.18;100382.75;5141918;28;20039;-78
2021/07/15 11:28:17;;;;;;;2.88;0.63;;;;;;;26.56;63.51;100389.69;5142037;28;20488;-78
2021/07/15 11:30:50;;;;;;;2.00;0.68;;;;;;;26.30;63.79;100387.00;5139715;28;20052;-78
2021/07/15 11:33:23;;;;;;;2.53;0.70;;;;;;;26.78;63.09;100382.75;5140837;28;20089;-78
2021/07/15 11:36:24;;;;;;;1.20;0.70;;;;;;;26.57;62.55;100381.50;5141494;28;20041;-78
2021/07/15 11:38:58;;;;;;;0.57;0.47;;;;;;;26.64;62.58;100390.59;5140326;28;20420;-78
2021/07/15 11:41:42;;;;;;;0.82;0.60;;;;;;;26.78;64.47;100390.78;5142266;28;20087;-78
2021/07/15 11:44:14;;;;;;;1.42;0.70;;;;;;;26.31;65.23;100391.38;5141406;28;20030;-78
2021/07/15 11:46:46;;;;;;;3.00;0.70;;;;;;;26.72;64.47;100395.13;5145008;28;20038;-78
2021/07/15 11:49:19;;;;;;;1.38;0.60;;;;;;;26.64;66.53;100390.59;5140834;28;20767;-78